createdAt,value
2023-04-02T00:00:57.641Z,93995.00
2023-04-02T00:01:57.729Z,93992.00
2023-04-02T00:02:57.876Z,93992.00
2023-04-02T00:03:57.777Z,93993.00
2023-04-02T00:04:57.780Z,93993.00
2023-04-02T00:05:57.864Z,94001.00
2023-04-02T00:06:57.867Z,93993.00
2023-04-02T00:07:57.872Z,93992.00
2023-04-02T00:08:57.916Z,94001.00
2023-04-02T00:09:57.929Z,93995.00
2023-04-02T00:10:57.912Z,94003.00
2023-04-02T00:11:57.982Z,93997.00
2023-04-02T00:12:57.986Z,94001.00
2023-04-02T00:13:58.016Z,94005.00
2023-04-02T00:14:58.099Z,93999.00
2023-04-02T00:15:58.206Z,94003.00
2023-04-02T00:16:58.095Z,94005.00
2023-04-02T00:17:58.177Z,93999.00
2023-04-02T00:18:58.227Z,94005.00
2023-04-02T00:19:58.287Z,94003.00
2023-04-02T00:20:58.221Z,94005.00
2023-04-02T00:21:58.229Z,94001.00
2023-04-02T00:22:58.266Z,94003.00
2023-04-02T00:23:58.316Z,94007.00
2023-04-02T00:24:58.361Z,94003.00
2023-04-02T00:25:58.372Z,94005.00
2023-04-02T00:26:58.400Z,94007.00
2023-04-02T00:27:58.412Z,94007.00
2023-04-02T00:28:58.459Z,94011.00
2023-04-02T00:29:58.472Z,94009.00
2023-04-02T00:30:58.495Z,94009.00
2023-04-02T00:31:58.547Z,94011.00
2023-04-02T00:32:58.579Z,94009.00
2023-04-02T00:33:58.620Z,94009.00
2023-04-02T00:34:58.620Z,94007.00
2023-04-02T00:35:58.686Z,94011.00
2023-04-02T00:36:58.678Z,94007.00
2023-04-02T00:37:58.706Z,94015.00
2023-04-02T00:38:58.704Z,94013.00
2023-04-02T00:39:58.753Z,94013.00
2023-04-02T00:40:58.801Z,94011.00
2023-04-02T00:41:58.843Z,94015.00
2023-04-02T00:42:58.848Z,94015.00
2023-04-02T00:43:58.831Z,94011.00
2023-04-02T00:44:58.891Z,94013.00
2023-04-02T00:45:58.940Z,94011.00
2023-04-02T00:46:58.946Z,94011.00
2023-04-02T00:47:59.020Z,94015.00
2023-04-02T00:48:59.010Z,94015.00
2023-04-02T00:49:59.081Z,94009.00
2023-04-02T00:50:59.119Z,94009.00
2023-04-02T00:51:59.146Z,94009.00
2023-04-02T00:52:59.176Z,94011.00
2023-04-02T00:53:59.187Z,94009.00
2023-04-02T00:54:59.196Z,94007.00
2023-04-02T00:55:59.232Z,94007.00
2023-04-02T00:56:59.305Z,94007.00
2023-04-02T00:57:59.287Z,94009.00
2023-04-02T00:58:59.316Z,94005.00
2023-04-02T00:59:59.381Z,94005.00
2023-04-02T01:00:59.401Z,94003.00
2023-04-02T01:01:59.392Z,94007.00
2023-04-02T01:02:59.470Z,94005.00
2023-04-02T01:03:59.468Z,94005.00
2023-04-02T01:04:59.515Z,94009.00
2023-04-02T01:05:59.560Z,94011.00
2023-04-02T01:06:59.616Z,94011.00
2023-04-02T01:07:59.635Z,94007.00
2023-04-02T01:08:59.649Z,94009.00
2023-04-02T01:09:59.676Z,94011.00
2023-04-02T01:10:59.729Z,94009.00
2023-04-02T01:11:59.766Z,94011.00
2023-04-02T01:12:59.799Z,94015.00
2023-04-02T01:13:59.814Z,94011.00
2023-04-02T01:14:59.846Z,94017.00
2023-04-02T01:15:59.928Z,94017.00
2023-04-02T01:16:59.917Z,94013.00
2023-04-02T01:17:59.979Z,94017.00
2023-04-02T01:18:59.949Z,94021.00
2023-04-02T01:19:59.949Z,94023.00
2023-04-02T01:21:00.031Z,94021.00
2023-04-02T01:22:00.011Z,94019.00
2023-04-02T01:23:00.037Z,94019.00
2023-04-02T01:24:00.048Z,94021.00
2023-04-02T01:25:00.119Z,94025.00
2023-04-02T01:26:00.093Z,94023.00
2023-04-02T01:27:00.146Z,94021.00
2023-04-02T01:28:00.139Z,94023.00
2023-04-02T01:29:00.184Z,94021.00
2023-04-02T01:30:00.188Z,94023.00
2023-04-02T01:31:00.286Z,94025.00
2023-04-02T01:32:00.249Z,94021.00
2023-04-02T01:33:00.356Z,94017.00
2023-04-02T01:34:00.346Z,94019.00
2023-04-02T01:35:00.392Z,94017.00
2023-04-02T01:36:00.478Z,94019.00
2023-04-02T01:37:00.444Z,94015.00
2023-04-02T01:38:00.450Z,94015.00
2023-04-02T01:39:00.487Z,94019.00
2023-04-02T01:40:00.490Z,94023.00
2023-04-02T01:41:00.513Z,94021.00
2023-04-02T01:42:00.540Z,94027.00
2023-04-02T01:43:00.535Z,94027.00
2023-04-02T01:44:00.579Z,94027.00
2023-04-02T01:45:00.581Z,94033.00
2023-04-02T01:46:00.649Z,94033.00
2023-04-02T01:47:00.635Z,94035.00
2023-04-02T01:48:00.729Z,94031.00
2023-04-02T01:49:00.712Z,94031.00
2023-04-02T01:50:00.757Z,94035.00
2023-04-02T01:51:00.742Z,94033.00
2023-04-02T01:52:00.834Z,94037.00
2023-04-02T01:53:00.835Z,94037.00
2023-04-02T01:54:00.895Z,94035.00
2023-04-02T01:55:00.891Z,94039.00
2023-04-02T01:56:00.942Z,94039.00
2023-04-02T01:57:00.975Z,94040.00
2023-04-02T01:58:00.974Z,94040.00
2023-04-02T01:59:01.077Z,94039.00
2023-04-02T02:00:01.051Z,94040.00
2023-04-02T02:01:01.113Z,94037.00
2023-04-02T02:02:01.138Z,94037.00
2023-04-02T02:03:01.173Z,94040.00
2023-04-02T02:04:01.106Z,94039.00
2023-04-02T02:05:01.136Z,94040.00
2023-04-02T02:06:01.179Z,94040.00
2023-04-02T02:07:01.586Z,94044.00
2023-04-02T02:08:01.267Z,94044.00
2023-04-02T02:09:01.300Z,94048.00
2023-04-02T02:10:01.353Z,94048.00
2023-04-02T02:11:01.391Z,94050.00
2023-04-02T02:12:01.409Z,94050.00
2023-04-02T02:13:01.433Z,94054.00
2023-04-02T02:14:01.479Z,94056.00
2023-04-02T02:15:01.536Z,94056.00
2023-04-02T02:16:01.541Z,94058.00
2023-04-02T02:17:01.544Z,94054.00
2023-04-02T02:18:01.578Z,94054.00
2023-04-02T02:19:01.612Z,94052.00
2023-04-02T02:20:01.633Z,94054.00
2023-04-02T02:21:01.626Z,94056.00
2023-04-02T02:22:01.660Z,94058.00
2023-04-02T02:23:01.674Z,94060.00
2023-04-02T02:24:01.707Z,94058.00
2023-04-02T02:25:01.743Z,94056.00
2023-04-02T02:26:01.774Z,94056.00
2023-04-02T02:27:01.829Z,94058.00
2023-04-02T02:28:01.855Z,94060.00
2023-04-02T02:29:01.906Z,94060.00
2023-04-02T02:30:01.922Z,94064.00
2023-04-02T02:31:01.948Z,94062.00
2023-04-02T02:32:01.986Z,94064.00
2023-04-02T02:33:02.084Z,94066.00
2023-04-02T02:34:02.039Z,94068.00
2023-04-02T02:35:02.082Z,94066.00
2023-04-02T02:36:02.160Z,94070.00
2023-04-02T02:37:02.135Z,94070.00
2023-04-02T02:38:02.162Z,94070.00
2023-04-02T02:39:02.212Z,94074.00
2023-04-02T02:40:02.252Z,94080.00
2023-04-02T02:41:02.230Z,94080.00
2023-04-02T02:42:02.269Z,94080.00
2023-04-02T02:43:02.319Z,94080.00
2023-04-02T02:44:02.331Z,94082.00
2023-04-02T02:45:02.410Z,94086.00
2023-04-02T02:46:02.467Z,94082.00
2023-04-02T02:47:02.585Z,94084.00
2023-04-02T02:48:02.493Z,94084.00
2023-04-02T02:49:02.495Z,94086.00
2023-04-02T02:50:02.489Z,94084.00
2023-04-02T02:51:02.543Z,94086.00
2023-04-02T02:52:02.540Z,94090.00
2023-04-02T02:53:02.613Z,94090.00
2023-04-02T02:54:02.638Z,94092.00
2023-04-02T02:55:02.701Z,94092.00
2023-04-02T02:56:02.764Z,94095.00
2023-04-02T02:57:02.749Z,94095.00
2023-04-02T02:58:02.772Z,94095.00
2023-04-02T02:59:02.780Z,94099.00
2023-04-02T03:00:02.787Z,94097.00
2023-04-02T03:01:02.827Z,94097.00
2023-04-02T03:02:02.842Z,94101.00
2023-04-02T03:03:02.916Z,94099.00
2023-04-02T03:04:03.053Z,94099.00
2023-04-02T03:05:02.951Z,94099.00
2023-04-02T03:06:02.999Z,94101.00
2023-04-02T03:07:03.024Z,94103.00
2023-04-02T03:08:03.069Z,94103.00
2023-04-02T03:09:03.081Z,94103.00
2023-04-02T03:10:03.111Z,94101.00
2023-04-02T03:11:03.100Z,94103.00
2023-04-02T03:12:03.153Z,94103.00
2023-04-02T03:13:03.182Z,94105.00
2023-04-02T03:14:03.225Z,94107.00
2023-04-02T03:15:03.248Z,94107.00
2023-04-02T03:16:03.383Z,94109.00
2023-04-02T03:17:03.373Z,94109.00
2023-04-02T03:18:03.421Z,94119.00
2023-04-02T03:19:03.456Z,94117.00
2023-04-02T03:20:03.486Z,94117.00
2023-04-02T03:21:03.551Z,94119.00
2023-04-02T03:22:03.562Z,94119.00
2023-04-02T03:23:03.576Z,94119.00
2023-04-02T03:24:03.591Z,94119.00
2023-04-02T03:25:03.615Z,94119.00
2023-04-02T03:26:03.655Z,94119.00
2023-04-02T03:27:03.716Z,94123.00
2023-04-02T03:28:03.741Z,94125.00
2023-04-02T03:29:03.782Z,94129.00
2023-04-02T03:30:03.780Z,94131.00
2023-04-02T03:31:03.882Z,94131.00
2023-04-02T03:32:03.789Z,94137.00
2023-04-02T03:33:03.855Z,94133.00
2023-04-02T03:34:03.921Z,94133.00
2023-04-02T03:35:03.920Z,94131.00
2023-04-02T03:36:03.962Z,94133.00
2023-04-02T03:37:03.977Z,94129.00
2023-04-02T03:38:03.985Z,94131.00
2023-04-02T03:39:04.043Z,94133.00
2023-04-02T03:40:04.040Z,94133.00
2023-04-02T03:41:04.085Z,94133.00
2023-04-02T03:42:04.122Z,94135.00
2023-04-02T03:43:04.181Z,94137.00
2023-04-02T03:44:04.154Z,94137.00
2023-04-02T03:45:04.182Z,94139.00
2023-04-02T03:46:04.292Z,94139.00
2023-04-02T03:47:04.303Z,94139.00
2023-04-02T03:48:04.324Z,94139.00
2023-04-02T03:49:04.305Z,94139.00
2023-04-02T03:50:04.351Z,94144.00
2023-04-02T03:51:04.380Z,94142.00
2023-04-02T03:52:04.394Z,94144.00
2023-04-02T03:53:04.441Z,94144.00
2023-04-02T03:54:04.458Z,94144.00
2023-04-02T03:55:04.496Z,94140.00
2023-04-02T03:56:04.490Z,94140.00
2023-04-02T03:57:04.562Z,94142.00
2023-04-02T03:58:04.533Z,94140.00
2023-04-02T03:59:04.577Z,94140.00
2023-04-02T04:00:04.631Z,94142.00
2023-04-02T04:01:04.626Z,94142.00
2023-04-02T04:02:04.716Z,94144.00
2023-04-02T04:03:04.769Z,94144.00
2023-04-02T04:04:04.773Z,94148.00
2023-04-02T04:05:04.750Z,94150.00
2023-04-02T04:06:04.745Z,94148.00
2023-04-02T04:07:04.771Z,94146.00
2023-04-02T04:08:04.774Z,94148.00
2023-04-02T04:09:04.838Z,94152.00
2023-04-02T04:10:04.985Z,94148.00
2023-04-02T04:11:04.943Z,94148.00
2023-04-02T04:12:04.936Z,94154.00
2023-04-02T04:13:04.970Z,94156.00
2023-04-02T04:14:05.041Z,94158.00
2023-04-02T04:15:05.092Z,94158.00
2023-04-02T04:16:05.220Z,94160.00
2023-04-02T04:17:05.068Z,94158.00
2023-04-02T04:18:05.117Z,94158.00
2023-04-02T04:19:05.230Z,94160.00
2023-04-02T04:20:05.177Z,94158.00
2023-04-02T04:21:05.239Z,94162.00
2023-04-02T04:22:05.248Z,94164.00
2023-04-02T04:23:05.312Z,94168.00
2023-04-02T04:24:05.311Z,94168.00
2023-04-02T04:25:05.384Z,94170.00
2023-04-02T04:26:05.425Z,94170.00
2023-04-02T04:27:05.454Z,94176.00
2023-04-02T04:28:05.703Z,94176.00
2023-04-02T04:29:05.556Z,94176.00
2023-04-02T04:30:05.576Z,94180.00
2023-04-02T04:31:05.650Z,94180.00
2023-04-02T04:32:05.641Z,94182.00
2023-04-02T04:33:05.781Z,94184.00
2023-04-02T04:34:05.667Z,94184.00
2023-04-02T04:35:05.715Z,94187.00
2023-04-02T04:36:05.750Z,94184.00
2023-04-02T04:37:05.743Z,94186.00
2023-04-02T04:38:05.768Z,94189.00
2023-04-02T04:39:05.820Z,94191.00
2023-04-02T04:40:05.828Z,94193.00
2023-04-02T04:41:05.878Z,94193.00
2023-04-02T04:42:05.903Z,94197.00
2023-04-02T04:43:05.976Z,94199.00
2023-04-02T04:44:05.979Z,94199.00
2023-04-02T04:45:05.976Z,94201.00
2023-04-02T04:46:06.018Z,94203.00
2023-04-02T04:47:06.018Z,94203.00
2023-04-02T04:48:06.083Z,94201.00
2023-04-02T04:49:06.073Z,94203.00
2023-04-02T04:50:06.169Z,94207.00
2023-04-02T04:51:06.163Z,94203.00
2023-04-02T04:52:06.203Z,94205.00
2023-04-02T04:53:06.211Z,94203.00
2023-04-02T04:54:06.262Z,94207.00
2023-04-02T04:55:06.268Z,94207.00
2023-04-02T04:56:18.756Z,94207.00
2023-04-02T04:57:07.346Z,94211.00
2023-04-02T04:58:06.302Z,94207.00
2023-04-02T04:59:06.381Z,94209.00
2023-04-02T05:00:06.312Z,94213.00
2023-04-02T05:01:06.339Z,94215.00
2023-04-02T05:02:06.306Z,94215.00
2023-04-02T05:03:06.290Z,94219.00
2023-04-02T05:04:06.260Z,94221.00
2023-04-02T05:05:06.244Z,94221.00
2023-04-02T05:06:06.260Z,94223.00
2023-04-02T05:07:06.269Z,94223.00
2023-04-02T05:08:06.284Z,94225.00
2023-04-02T05:09:06.228Z,94229.00
2023-04-02T05:10:06.202Z,94225.00
2023-04-02T05:11:06.263Z,94229.00
2023-04-02T05:12:06.275Z,94227.00
2023-04-02T05:13:06.331Z,94227.00
2023-04-02T05:14:06.356Z,94223.00
2023-04-02T05:15:06.397Z,94227.00
2023-04-02T05:16:06.441Z,94221.00
2023-04-02T05:17:06.418Z,94225.00
2023-04-02T05:18:06.509Z,94223.00
2023-04-02T05:19:06.496Z,94223.00
2023-04-02T05:20:06.519Z,94227.00
2023-04-02T05:21:06.608Z,94225.00
2023-04-02T05:22:06.568Z,94229.00
2023-04-02T05:23:06.591Z,94225.00
2023-04-02T05:24:06.645Z,94231.00
2023-04-02T05:25:06.685Z,94233.00
2023-04-02T05:26:06.737Z,94227.00
2023-04-02T05:27:06.792Z,94233.00
2023-04-02T05:28:06.814Z,94234.00
2023-04-02T05:29:06.794Z,94231.00
2023-04-02T05:30:06.862Z,94233.00
2023-04-02T05:31:06.930Z,94234.00
2023-04-02T05:32:06.911Z,94231.00
2023-04-02T05:33:06.957Z,94233.00
2023-04-02T05:34:06.937Z,94234.00
2023-04-02T05:35:07.001Z,94238.00
2023-04-02T05:36:07.050Z,94236.00
2023-04-02T05:37:07.306Z,94238.00
2023-04-02T05:38:07.117Z,94242.00
2023-04-02T05:39:07.157Z,94244.00
2023-04-02T05:40:07.186Z,94242.00
2023-04-02T05:41:07.200Z,94250.00
2023-04-02T05:42:07.261Z,94250.00
2023-04-02T05:43:07.302Z,94250.00
2023-04-02T05:44:07.352Z,94252.00
2023-04-02T05:45:07.323Z,94252.00
2023-04-02T05:46:07.388Z,94256.00
2023-04-02T05:47:07.386Z,94256.00
2023-04-02T05:48:07.460Z,94256.00
2023-04-02T05:49:07.414Z,94258.00
2023-04-02T05:50:07.451Z,94260.00
2023-04-02T05:51:07.428Z,94262.00
2023-04-02T05:52:07.471Z,94262.00
2023-04-02T05:53:07.490Z,94264.00
2023-04-02T05:54:07.545Z,94262.00
2023-04-02T05:55:07.546Z,94266.00
2023-04-02T05:56:07.635Z,94268.00
2023-04-02T05:57:07.784Z,94268.00
2023-04-02T05:59:08.660Z,94268.00
2023-04-02T06:00:07.642Z,94270.00
2023-04-02T06:01:07.685Z,94272.00
2023-04-02T06:02:07.729Z,94270.00
2023-04-02T06:03:07.880Z,94274.00
2023-04-02T06:04:07.665Z,94270.00
2023-04-02T06:05:07.624Z,94272.00
2023-04-02T06:06:07.595Z,94272.00
2023-04-02T06:07:07.624Z,94274.00
2023-04-02T06:08:07.627Z,94274.00
2023-04-02T06:09:07.593Z,94270.00
2023-04-02T06:10:07.611Z,94272.00
2023-04-02T06:11:07.589Z,94272.00
2023-04-02T06:12:07.581Z,94270.00
2023-04-02T06:13:07.580Z,94270.00
2023-04-02T06:14:07.614Z,94272.00
2023-04-02T06:15:07.606Z,94270.00
2023-04-02T06:16:07.668Z,94270.00
2023-04-02T06:17:07.707Z,94272.00
2023-04-02T06:18:07.763Z,94272.00
2023-04-02T06:19:07.746Z,94274.00
2023-04-02T06:20:07.776Z,94276.00
2023-04-02T06:21:07.820Z,94278.00
2023-04-02T06:22:07.836Z,94280.00
2023-04-02T06:23:07.838Z,94278.00
2023-04-02T06:24:07.915Z,94280.00
2023-04-02T06:25:07.933Z,94282.00
2023-04-02T06:26:07.971Z,94280.00
2023-04-02T06:27:07.991Z,94280.00
2023-04-02T06:28:08.041Z,94280.00
2023-04-02T06:29:08.098Z,94282.00
2023-04-02T06:30:08.102Z,94280.00
2023-04-02T06:31:08.138Z,94282.00
2023-04-02T06:32:08.173Z,94282.00
2023-04-02T06:33:08.180Z,94282.00
2023-04-02T06:34:08.237Z,94288.00
2023-04-02T06:35:08.217Z,94288.00
2023-04-02T06:36:08.319Z,94291.00
2023-04-02T06:37:08.321Z,94289.00
2023-04-02T06:38:08.355Z,94291.00
2023-04-02T06:39:08.390Z,94291.00
2023-04-02T06:40:08.426Z,94291.00
2023-04-02T06:41:08.492Z,94293.00
2023-04-02T06:42:08.486Z,94293.00
2023-04-02T06:43:08.551Z,94295.00
2023-04-02T06:44:08.546Z,94295.00
2023-04-02T06:45:08.564Z,94299.00
2023-04-02T06:46:08.726Z,94299.00
2023-04-02T06:47:08.600Z,94297.00
2023-04-02T06:48:08.722Z,94299.00
2023-04-02T06:49:08.664Z,94303.00
2023-04-02T06:50:08.700Z,94301.00
2023-04-02T06:51:08.739Z,94303.00
2023-04-02T06:52:08.724Z,94301.00
2023-04-02T06:53:08.741Z,94301.00
2023-04-02T06:54:08.780Z,94301.00
2023-04-02T06:55:08.881Z,94301.00
2023-04-02T06:56:08.831Z,94301.00
2023-04-02T06:57:08.882Z,94303.00
2023-04-02T06:58:08.900Z,94301.00
2023-04-02T06:59:08.936Z,94301.00
2023-04-02T07:00:08.912Z,94305.00
2023-04-02T07:01:09.003Z,94301.00
2023-04-02T07:02:08.967Z,94301.00
2023-04-02T07:03:09.068Z,94299.00
2023-04-02T07:04:09.054Z,94299.00
2023-04-02T07:05:09.269Z,94295.00
2023-04-02T07:06:09.133Z,94299.00
2023-04-02T07:07:09.143Z,94297.00
2023-04-02T07:08:09.152Z,94297.00
2023-04-02T07:09:09.186Z,94297.00
2023-04-02T07:10:09.293Z,94301.00
2023-04-02T07:11:09.265Z,94299.00
2023-04-02T07:12:09.341Z,94301.00
2023-04-02T07:13:09.344Z,94303.00
2023-04-02T07:14:09.370Z,94301.00
2023-04-02T07:15:09.387Z,94299.00
2023-04-02T07:16:09.542Z,94297.00
2023-04-02T07:17:09.489Z,94301.00
2023-04-02T07:18:09.586Z,94299.00
2023-04-02T07:19:09.559Z,94297.00
2023-04-02T07:20:09.562Z,94297.00
2023-04-02T07:21:09.598Z,94295.00
2023-04-02T07:22:09.642Z,94299.00
2023-04-02T07:23:09.690Z,94299.00
2023-04-02T07:24:09.694Z,94297.00
2023-04-02T07:25:09.720Z,94297.00
2023-04-02T07:26:09.764Z,94295.00
2023-04-02T07:27:09.801Z,94293.00
2023-04-02T07:28:09.763Z,94297.00
2023-04-02T07:29:09.852Z,94299.00
2023-04-02T07:30:09.853Z,94295.00
2023-04-02T07:31:09.916Z,94297.00
2023-04-02T07:32:09.907Z,94299.00
2023-04-02T07:33:09.990Z,94297.00
2023-04-02T07:34:10.033Z,94299.00
2023-04-02T07:35:10.059Z,94301.00
2023-04-02T07:36:10.089Z,94299.00
2023-04-02T07:37:10.106Z,94295.00
2023-04-02T07:38:10.138Z,94297.00
2023-04-02T07:39:10.187Z,94299.00
2023-04-02T07:40:10.215Z,94299.00
2023-04-02T07:41:10.265Z,94299.00
2023-04-02T07:42:10.273Z,94299.00
2023-04-02T07:43:10.320Z,94299.00
2023-04-02T07:44:10.346Z,94301.00
2023-04-02T07:45:10.355Z,94301.00
2023-04-02T07:46:10.458Z,94307.00
2023-04-02T07:47:10.466Z,94305.00
2023-04-02T07:48:10.473Z,94309.00
2023-04-02T07:49:10.497Z,94311.00
2023-04-02T07:50:10.498Z,94307.00
2023-04-02T07:51:10.535Z,94311.00
2023-04-02T07:52:10.559Z,94311.00
2023-04-02T07:53:10.573Z,94315.00
2023-04-02T07:54:10.613Z,94313.00
2023-04-02T07:55:10.632Z,94313.00
2023-04-02T07:56:10.687Z,94317.00
2023-04-02T07:57:10.748Z,94315.00
2023-04-02T07:58:10.898Z,94313.00
2023-04-02T07:59:10.944Z,94317.00
2023-04-02T08:00:10.964Z,94315.00
2023-04-02T08:01:11.022Z,94313.00
2023-04-02T08:02:11.075Z,94313.00
2023-04-02T08:03:11.113Z,94313.00
2023-04-02T08:04:11.113Z,94313.00
2023-04-02T08:05:11.049Z,94313.00
2023-04-02T08:06:11.095Z,94317.00
2023-04-02T08:07:11.120Z,94315.00
2023-04-02T08:08:11.145Z,94313.00
2023-04-02T08:09:11.225Z,94315.00
2023-04-02T08:10:11.240Z,94315.00
2023-04-02T08:11:11.278Z,94317.00
2023-04-02T08:12:11.294Z,94315.00
2023-04-02T08:13:11.341Z,94313.00
2023-04-02T08:14:11.356Z,94317.00
2023-04-02T08:15:11.408Z,94317.00
2023-04-02T08:16:11.534Z,94311.00
2023-04-02T08:17:11.576Z,94315.00
2023-04-02T08:18:11.519Z,94315.00
2023-04-02T08:19:11.544Z,94317.00
2023-04-02T08:20:11.558Z,94319.00
2023-04-02T08:21:11.613Z,94319.00
2023-04-02T08:22:11.647Z,94315.00
2023-04-02T08:23:11.669Z,94321.00
2023-04-02T08:24:11.727Z,94317.00
2023-04-02T08:25:11.776Z,94315.00
2023-04-02T08:26:11.817Z,94317.00
2023-04-02T08:27:11.863Z,94319.00
2023-04-02T08:28:11.891Z,94319.00
2023-04-02T08:29:11.934Z,94323.00
2023-04-02T08:30:11.977Z,94321.00
2023-04-02T08:31:12.057Z,94321.00
2023-04-02T08:32:12.091Z,94319.00
2023-04-02T08:33:12.131Z,94319.00
2023-04-02T08:34:12.102Z,94317.00
2023-04-02T08:35:12.113Z,94317.00
2023-04-02T08:36:12.146Z,94321.00
2023-04-02T08:37:12.164Z,94319.00
2023-04-02T08:38:12.196Z,94321.00
2023-04-02T08:39:12.242Z,94317.00
2023-04-02T08:40:12.236Z,94317.00
2023-04-02T08:41:12.243Z,94315.00
2023-04-02T08:42:12.283Z,94315.00
2023-04-02T08:43:12.321Z,94317.00
2023-04-02T08:44:12.309Z,94315.00
2023-04-02T08:45:24.207Z,94315.00
2023-04-02T08:46:13.375Z,94317.00
2023-04-02T08:47:12.383Z,94313.00
2023-04-02T08:48:12.394Z,94313.00
2023-04-02T08:49:12.365Z,94311.00
2023-04-02T08:50:12.365Z,94313.00
2023-04-02T08:51:12.335Z,94313.00
2023-04-02T08:52:12.347Z,94309.00
2023-04-02T08:53:12.312Z,94305.00
2023-04-02T08:54:12.339Z,94309.00
2023-04-02T08:55:12.343Z,94311.00
2023-04-02T08:56:12.313Z,94305.00
2023-04-02T08:57:12.345Z,94305.00
2023-04-02T08:58:12.294Z,94305.00
2023-04-02T08:59:12.252Z,94301.00
2023-04-02T09:00:12.254Z,94301.00
2023-04-02T09:01:12.260Z,94303.00
2023-04-02T09:02:12.274Z,94303.00
2023-04-02T09:03:12.299Z,94301.00
2023-04-02T09:04:12.359Z,94301.00
2023-04-02T09:05:12.626Z,94299.00
2023-04-02T09:06:13.388Z,94297.00
2023-04-02T09:07:12.506Z,94301.00
2023-04-02T09:08:12.553Z,94295.00
2023-04-02T09:09:12.627Z,94297.00
2023-04-02T09:10:12.633Z,94293.00
2023-04-02T09:11:12.671Z,94297.00
2023-04-02T09:12:12.722Z,94295.00
2023-04-02T09:13:12.745Z,94291.00
2023-04-02T09:14:12.758Z,94291.00
2023-04-02T09:15:12.771Z,94295.00
2023-04-02T09:16:12.849Z,94295.00
2023-04-02T09:17:12.823Z,94291.00
2023-04-02T09:18:12.904Z,94293.00
2023-04-02T09:19:12.893Z,94293.00
2023-04-02T09:20:12.935Z,94295.00
2023-04-02T09:21:12.976Z,94293.00
2023-04-02T09:22:12.965Z,94293.00
2023-04-02T09:23:13.018Z,94291.00
2023-04-02T09:24:13.078Z,94293.00
2023-04-02T09:25:13.081Z,94293.00
2023-04-02T09:26:13.133Z,94289.00
2023-04-02T09:27:13.175Z,94289.00
2023-04-02T09:28:13.189Z,94291.00
2023-04-02T09:29:13.305Z,94289.00
2023-04-02T09:30:13.275Z,94295.00
2023-04-02T09:31:13.396Z,94293.00
2023-04-02T09:32:13.326Z,94293.00
2023-04-02T09:33:13.341Z,94295.00
2023-04-02T09:34:13.352Z,94297.00
2023-04-02T09:35:24.783Z,94295.00
2023-04-02T09:36:16.071Z,94295.00
2023-04-02T09:37:13.370Z,94295.00
2023-04-02T09:38:13.371Z,94291.00
2023-04-02T09:39:13.366Z,94291.00
2023-04-02T09:40:13.325Z,94288.00
2023-04-02T09:41:13.334Z,94293.00
2023-04-02T09:42:13.345Z,94289.00
2023-04-02T09:43:13.349Z,94288.00
2023-04-02T09:44:13.334Z,94289.00
2023-04-02T09:45:13.312Z,94286.00
2023-04-02T09:46:13.340Z,94289.00
2023-04-02T09:47:13.313Z,94293.00
2023-04-02T09:48:13.355Z,94291.00
2023-04-02T09:49:13.288Z,94289.00
2023-04-02T09:50:13.299Z,94288.00
2023-04-02T09:51:13.310Z,94289.00
2023-04-02T09:52:13.283Z,94286.00
2023-04-02T09:53:13.264Z,94289.00
2023-04-02T09:54:13.250Z,94289.00
2023-04-02T09:55:13.227Z,94289.00
2023-04-02T09:56:13.244Z,94288.00
2023-04-02T09:57:13.292Z,94289.00
2023-04-02T09:58:13.249Z,94289.00
2023-04-02T09:59:13.231Z,94289.00
2023-04-02T10:00:25.384Z,94295.00
2023-04-02T10:01:14.230Z,94295.00
2023-04-02T10:02:13.189Z,94293.00
2023-04-02T10:03:13.177Z,94297.00
2023-04-02T10:04:13.258Z,94293.00
2023-04-02T10:05:13.716Z,94297.00
2023-04-02T10:06:13.193Z,94297.00
2023-04-02T10:07:13.202Z,94297.00
2023-04-02T10:08:13.205Z,94299.00
2023-04-02T10:09:13.124Z,94297.00
2023-04-02T10:10:13.231Z,94299.00
2023-04-02T10:11:13.153Z,94299.00
2023-04-02T10:12:13.152Z,94299.00
2023-04-02T10:13:13.207Z,94297.00
2023-04-02T10:14:13.240Z,94299.00
2023-04-02T10:15:13.240Z,94291.00
2023-04-02T10:16:13.358Z,94291.00
2023-04-02T10:17:13.502Z,94293.00
2023-04-02T10:18:13.308Z,94289.00
2023-04-02T10:19:13.327Z,94293.00
2023-04-02T10:20:13.434Z,94289.00
2023-04-02T10:21:13.352Z,94291.00
2023-04-02T10:22:13.402Z,94289.00
2023-04-02T10:23:13.445Z,94288.00
2023-04-02T10:24:13.450Z,94288.00
2023-04-02T10:25:13.468Z,94289.00
2023-04-02T10:26:13.474Z,94291.00
2023-04-02T10:27:13.568Z,94291.00
2023-04-02T10:28:13.549Z,94293.00
2023-04-02T10:29:13.580Z,94293.00
2023-04-02T10:30:13.594Z,94293.00
2023-04-02T10:31:13.670Z,94293.00
2023-04-02T10:32:13.660Z,94295.00
2023-04-02T10:33:13.690Z,94293.00
2023-04-02T10:34:13.724Z,94295.00
2023-04-02T10:35:13.752Z,94295.00
2023-04-02T10:36:13.823Z,94295.00
2023-04-02T10:37:13.848Z,94295.00
2023-04-02T10:38:13.799Z,94297.00
2023-04-02T10:39:13.856Z,94299.00
2023-04-02T10:40:13.884Z,94297.00
2023-04-02T10:41:13.900Z,94299.00
2023-04-02T10:42:13.883Z,94299.00
2023-04-02T10:43:13.940Z,94299.00
2023-04-02T10:44:20.234Z,94295.00
2023-04-02T10:45:14.922Z,94297.00
2023-04-02T10:46:13.941Z,94297.00
2023-04-02T10:47:13.927Z,94297.00
2023-04-02T10:48:13.944Z,94303.00
2023-04-02T10:49:13.928Z,94299.00
2023-04-02T10:50:13.883Z,94301.00
2023-04-02T10:51:14.191Z,94301.00
2023-04-02T10:52:13.890Z,94301.00
2023-04-02T10:53:13.844Z,94299.00
2023-04-02T10:54:13.917Z,94299.00
2023-04-02T10:55:13.859Z,94303.00
2023-04-02T10:56:13.843Z,94303.00
2023-04-02T10:57:13.887Z,94309.00
2023-04-02T10:58:13.887Z,94305.00
2023-04-02T10:59:13.903Z,94307.00
2023-04-02T11:00:13.932Z,94305.00
2023-04-02T11:01:13.965Z,94307.00
2023-04-02T11:02:14.024Z,94307.00
2023-04-02T11:03:14.150Z,94305.00
2023-04-02T11:04:14.342Z,94305.00
2023-04-02T11:05:14.165Z,94305.00
2023-04-02T11:06:14.125Z,94307.00
2023-04-02T11:07:14.988Z,94307.00
2023-04-02T11:08:15.176Z,94307.00
2023-04-02T11:09:14.199Z,94307.00
2023-04-02T11:10:14.238Z,94307.00
2023-04-02T11:11:14.315Z,94309.00
2023-04-02T11:12:14.323Z,94309.00
2023-04-02T11:13:14.338Z,94309.00
2023-04-02T11:14:14.410Z,94307.00
2023-04-02T11:15:14.421Z,94309.00
2023-04-02T11:16:14.528Z,94309.00
2023-04-02T11:17:14.453Z,94309.00
2023-04-02T11:18:14.466Z,94313.00
2023-04-02T11:19:14.531Z,94311.00
2023-04-02T11:20:14.554Z,94313.00
2023-04-02T11:21:14.582Z,94313.00
2023-04-02T11:22:14.649Z,94315.00
2023-04-02T11:23:14.655Z,94315.00
2023-04-02T11:24:14.701Z,94317.00
2023-04-02T11:25:14.742Z,94317.00
2023-04-02T11:26:14.786Z,94319.00
2023-04-02T11:27:14.822Z,94319.00
2023-04-02T11:28:14.828Z,94321.00
2023-04-02T11:29:14.855Z,94319.00
2023-04-02T11:30:14.878Z,94325.00
2023-04-02T11:31:15.013Z,94325.00
2023-04-02T11:32:15.001Z,94325.00
2023-04-02T11:33:18.660Z,94327.00
2023-04-02T11:34:16.022Z,94327.00
2023-04-02T11:35:15.016Z,94327.00
2023-04-02T11:36:15.076Z,94327.00
2023-04-02T11:37:14.990Z,94329.00
2023-04-02T11:38:15.002Z,94331.00
2023-04-02T11:39:17.419Z,94331.00
2023-04-02T11:40:15.157Z,94331.00
2023-04-02T11:41:15.233Z,94333.00
2023-04-02T11:42:15.232Z,94333.00
2023-04-02T11:43:15.245Z,94329.00
2023-04-02T11:44:15.323Z,94337.00
2023-04-02T11:45:15.347Z,94331.00
2023-04-02T11:46:15.406Z,94333.00